Terminal Aerodrome Forecast
Issued by NWS Wichita, KS

Home | Current Version | Previous Version | Graphics & Text | Print | Product List | Glossary On
Versions: 1 2 3 4 5 6 7 8 9 10 11 12 13 14 15 16 17 18 19 20 21 22 23 24
559
FTUS43 KICT 142326
TAFICT
TAF
KICT 142326Z 1500/1524 VRB03KT 4SM -FZRA SCT025 OVC035
      TEMPO 1500/1502 2SM FZRA OVC025
     FM150200 04004KT 3SM -FZRA OVC015
     FM150500 05004KT 2SM FZRA OVC008
     FM151200 04005KT 2SM FZRA OVC003
     FM151800 06004KT 3SM -RA OVC005=

USA.gov is the U.S. government's official web portal to all federal, state and local government web resources and services.